Time;durP1;ratioP1;P1;durP2;ratioP2;P2;SDS_P1;SDS_P2;PMS_P1;PMS_P2;Temp;Humidity;BMP_temperature;BMP_pressure;BME280_temperature;BME280_humidity;BME280_pressure;Samples;Min_cycle;Max_cycle;Signal;HPM_P1;HPM_P2
2023/07/25 00:01:27;;;;;;;0.50;0.20;;;;;;;17.65;88.95;99178.19;4987024;28;20572;-52
2023/07/25 00:03:53;;;;;;;0.50;0.20;;;;;;;17.39;89.90;99172.06;4983141;28;20574;-52
2023/07/25 00:06:20;;;;;;;0.50;0.30;;;;;;;17.60;90.12;99164.25;4995723;28;20489;-53
2023/07/25 00:08:47;;;;;;;0.50;0.20;;;;;;;17.60;90.09;99161.56;4995969;28;20453;-52
2023/07/25 00:11:14;;;;;;;0.50;0.20;;;;;;;17.42;90.23;99152.22;4995729;28;20473;-52
2023/07/25 00:13:41;;;;;;;0.50;0.20;;;;;;;17.66;89.92;99149.47;4995553;28;20894;-53
2023/07/25 00:16:07;;;;;;;0.50;0.20;;;;;;;17.75;89.61;99148.81;4995754;28;20446;-52
2023/07/25 00:18:34;;;;;;;0.50;0.20;;;;;;;17.99;88.62;99146.09;4995813;28;20457;-52
2023/07/25 00:21:00;;;;;;;0.50;0.20;;;;;;;18.18;88.02;99148.19;4995533;28;20477;-53
2023/07/25 00:23:27;;;;;;;0.50;0.20;;;;;;;18.29;86.81;99149.06;4995511;28;20965;-52
2023/07/25 00:25:53;;;;;;;0.50;0.20;;;;;;;18.04;88.04;99139.34;4995288;28;20540;-53
2023/07/25 00:28:22;;;;;;;0.50;0.20;;;;;;;18.22;88.12;99137.06;4995335;28;20468;-52
2023/07/25 00:30:49;;;;;;;0.50;0.20;;;;;;;18.33;87.02;99142.44;4993197;28;20537;-53
2023/07/25 00:33:15;;;;;;;0.50;0.20;;;;;;;18.19;87.83;99141.81;4984646;28;20520;-52
2023/07/25 00:35:41;;;;;;;0.43;0.20;;;;;;;18.24;88.21;99136.97;4995222;28;21002;-53
2023/07/25 00:38:08;;;;;;;0.50;0.20;;;;;;;18.48;86.81;99135.00;4995270;28;20471;-53
2023/07/25 00:40:38;;;;;;;0.50;0.20;;;;;;;18.63;86.12;99135.59;4994853;28;20994;-53
2023/07/25 00:43:05;;;;;;;0.50;0.20;;;;;;;18.63;85.98;99138.28;4995043;28;20455;-53
2023/07/25 00:45:31;;;;;;;0.50;0.20;;;;;;;18.38;87.21;99143.94;4995059;28;20454;-52
2023/07/25 00:47:58;;;;;;;0.50;0.20;;;;;;;18.25;87.67;99144.91;4995053;28;20493;-53
2023/07/25 00:50:25;;;;;;;0.50;0.20;;;;;;;18.37;87.66;99144.94;4995039;28;20460;-53
2023/07/25 00:52:52;;;;;;;0.50;0.20;;;;;;;18.48;86.55;99145.75;4994788;28;20979;-53
2023/07/25 00:55:18;;;;;;;0.50;0.20;;;;;;;18.57;86.69;99138.81;5004812;28;21007;-53
2023/07/25 00:57:45;;;;;;;0.50;0.20;;;;;;;18.65;86.65;99141.78;4984917;28;20446;-53
2023/07/25 01:00:12;;;;;;;0.50;0.20;;;;;;;18.72;86.75;99134.91;4991524;28;21014;-53
2023/07/25 01:02:38;;;;;;;0.50;0.20;;;;;;;18.69;86.48;99137.84;4978824;28;20537;-52
2023/07/25 01:05:05;;;;;;;0.50;0.20;;;;;;;18.58;86.96;99135.13;4991680;28;20828;-53
2023/07/25 01:07:32;;;;;;;0.50;0.20;;;;;;;18.44;87.50;99136.22;4994637;28;20899;-53
2023/07/25 01:09:59;;;;;;;0.50;0.20;;;;;;;18.56;87.53;99135.25;4994583;28;20450;-53
2023/07/25 01:12:25;;;;;;;0.50;0.20;;;;;;;18.67;87.26;99125.50;4994566;28;20466;-53
2023/07/25 01:14:52;;;;;;;0.50;0.20;;;;;;;18.82;86.28;99132.34;4994541;28;20489;-53
2023/07/25 01:17:21;;;;;;;0.50;0.20;;;;;;;18.77;86.03;99130.00;4994585;28;20950;-53
2023/07/25 01:19:49;;;;;;;0.40;0.20;;;;;;;18.88;85.82;99135.38;4994446;28;20454;-53
2023/07/25 01:22:16;;;;;;;0.50;0.20;;;;;;;18.91;86.90;99143.22;4994250;28;20539;-53
2023/07/25 01:24:47;;;;;;;0.50;0.20;;;;;;;18.84;89.40;99143.84;4994584;28;20864;-53
2023/07/25 01:27:14;;;;;;;0.50;0.20;;;;;;;18.70;91.92;99138.72;4994355;28;20539;-53
2023/07/25 01:29:41;;;;;;;0.50;0.20;;;;;;;18.74;94.38;99134.78;4994293;28;20879;-53
2023/07/25 01:32:08;;;;;;;0.40;0.20;;;;;;;18.41;98.09;99143.69;4982714;28;20537;-53
2023/07/25 01:34:35;;;;;;;0.50;0.20;;;;;;;18.34;97.51;99132.53;4993024;28;20477;-53
2023/07/25 01:37:02;;;;;;;0.50;0.20;;;;;;;18.30;98.14;99131.09;4993959;28;20516;-52
2023/07/25 01:39:28;;;;;;;0.50;0.20;;;;;;;18.16;99.26;99120.56;4994197;28;20485;-53
2023/07/25 01:41:55;;;;;;;0.50;0.20;;;;;;;17.81;99.87;99121.44;4993891;28;20477;-53
2023/07/25 01:44:21;;;;;;;0.50;0.20;;;;;;;17.54;100.00;99118.16;4994030;28;20805;-53
2023/07/25 01:46:48;;;;;;;0.50;0.20;;;;;;;17.81;100.00;99125.97;4993983;28;20577;-53
2023/07/25 01:49:14;;;;;;;0.50;0.20;;;;;;;17.74;100.00;99122.91;4993803;28;20544;-53
2023/07/25 01:51:41;;;;;;;0.50;0.20;;;;;;;17.71;100.00;99128.53;4993772;28;20556;-53
2023/07/25 01:54:07;;;;;;;0.50;0.20;;;;;;;17.48;100.00;99123.03;5000305;28;20503;-53
2023/07/25 01:56:34;;;;;;;0.50;0.20;;;;;;;17.39;100.00;99118.34;4987416;28;20450;-52
2023/07/25 01:59:00;;;;;;;0.50;0.20;;;;;;;17.46;100.00;99121.44;4993814;28;20481;-53
2023/07/25 02:01:27;;;;;;;0.50;0.20;;;;;;;17.65;100.00;99123.56;4984501;28;20516;-52
2023/07/25 02:03:53;;;;;;;0.50;0.20;;;;;;;17.69;100.00;99123.28;4980840;28;20464;-53
2023/07/25 02:06:20;;;;;;;0.50;0.20;;;;;;;17.94;100.00;99127.59;4993729;28;20541;-53
2023/07/25 02:08:46;;;;;;;0.50;0.20;;;;;;;17.74;100.00;99112.16;4974188;28;20544;-53
2023/07/25 02:11:13;;;;;;;0.40;0.20;;;;;;;17.78;100.00;99108.25;4992406;28;20560;-52
2023/07/25 02:13:39;;;;;;;0.50;0.20;;;;;;;17.94;100.00;99102.53;4973361;28;20533;-53
2023/07/25 02:16:06;;;;;;;0.40;0.20;;;;;;;17.93;100.00;99106.22;4987070;28;20949;-53
2023/07/25 02:18:32;;;;;;;0.50;0.20;;;;;;;17.89;100.00;99110.13;4993279;28;20449;-53
2023/07/25 02:20:59;;;;;;;0.50;0.20;;;;;;;17.75;100.00;99106.66;4993205;28;20536;-53
2023/07/25 02:23:25;;;;;;;0.50;0.20;;;;;;;17.68;100.00;99097.38;4993509;28;20453;-53
2023/07/25 02:25:52;;;;;;;0.50;0.20;;;;;;;17.71;100.00;99107.88;4993127;28;20457;-52
2023/07/25 02:28:18;;;;;;;0.50;0.20;;;;;;;17.69;100.00;99098.22;4993228;28;21072;-52
2023/07/25 02:30:46;;;;;;;0.50;0.20;;;;;;;17.71;100.00;99107.88;4992652;28;20824;-52
2023/07/25 02:33:13;;;;;;;0.43;0.20;;;;;;;17.79;100.00;99101.91;4980795;28;20868;-52
2023/07/25 02:35:40;;;;;;;0.50;0.20;;;;;;;17.68;100.00;99108.13;4993217;28;20474;-52
2023/07/25 02:38:07;;;;;;;0.50;0.20;;;;;;;17.73;100.00;99107.75;4993060;28;20500;-53
2023/07/25 02:40:34;;;;;;;0.50;0.20;;;;;;;17.67;100.00;99102.81;4992935;28;21037;-53
2023/07/25 02:43:02;;;;;;;0.50;0.20;;;;;;;17.60;100.00;99085.47;4992925;28;20457;-53
2023/07/25 02:45:29;;;;;;;0.50;0.20;;;;;;;17.72;100.00;99090.78;4992787;28;20532;-52
2023/07/25 02:47:55;;;;;;;0.50;0.20;;;;;;;17.91;100.00;99081.28;4992870;28;20539;-53
2023/07/25 02:50:22;;;;;;;0.40;0.20;;;;;;;17.88;100.00;99089.59;4992732;28;20824;-53
2023/07/25 02:52:48;;;;;;;0.77;0.77;;;;;;;17.81;100.00;99086.50;4992938;28;20505;-53
2023/07/25 02:55:15;;;;;;;0.50;0.20;;;;;;;17.70;100.00;99089.19;5003793;28;20539;-52
2023/07/25 02:57:41;;;;;;;0.43;0.20;;;;;;;17.85;100.00;99082.63;4982496;28;20484;-52
2023/07/25 03:00:08;;;;;;;0.40;0.20;;;;;;;17.93;100.00;99085.56;4990259;28;20457;-52
2023/07/25 03:02:34;;;;;;;0.50;0.20;;;;;;;17.87;100.00;99080.66;4977815;28;20513;-52
2023/07/25 03:05:01;;;;;;;0.40;0.20;;;;;;;17.69;100.00;99087.47;4988806;28;20460;-53
2023/07/25 03:07:27;;;;;;;0.40;0.20;;;;;;;17.55;100.00;99079.59;4992864;28;20571;-52
2023/07/25 03:09:53;;;;;;;0.40;0.20;;;;;;;17.77;100.00;99068.91;4992641;28;21037;-52
2023/07/25 03:12:20;;;;;;;0.40;0.20;;;;;;;17.85;100.00;99069.19;4992756;28;20473;-52
2023/07/25 03:14:46;;;;;;;0.40;0.20;;;;;;;17.72;100.00;99063.91;4993072;28;20481;-52
2023/07/25 03:17:13;;;;;;;0.40;0.20;;;;;;;17.63;100.00;99064.56;4993035;28;21002;-52
2023/07/25 03:19:39;;;;;;;0.40;0.20;;;;;;;17.66;100.00;99064.31;4992755;28;20493;-52
2023/07/25 03:22:06;;;;;;;0.40;0.20;;;;;;;17.78;100.00;99054.50;4992849;28;20569;-52
2023/07/25 03:24:32;;;;;;;0.50;0.20;;;;;;;17.83;100.00;99060.38;4993099;28;20457;-52
2023/07/25 03:26:59;;;;;;;0.47;0.20;;;;;;;17.96;100.00;99046.84;4996535;28;20493;-52
2023/07/25 03:29:26;;;;;;;0.40;0.20;;;;;;;17.80;100.00;99049.84;4996334;28;20532;-53
2023/07/25 03:31:55;;;;;;;0.40;0.20;;;;;;;17.56;100.00;99043.69;4986053;28;20481;-52
2023/07/25 03:34:21;;;;;;;0.40;0.20;;;;;;;17.46;100.00;99043.53;4993880;28;20457;-52
2023/07/25 03:36:48;;;;;;;0.40;0.20;;;;;;;17.45;100.00;99034.63;4996344;28;20485;-52
2023/07/25 03:39:14;;;;;;;0.50;0.20;;;;;;;17.48;100.00;99036.19;4996317;28;20473;-52
2023/07/25 03:41:41;;;;;;;0.40;0.20;;;;;;;17.72;100.00;99034.34;4996157;28;20563;-52
2023/07/25 03:44:07;;;;;;;0.40;0.20;;;;;;;17.76;100.00;99034.94;4996103;28;20909;-53
2023/07/25 03:46:33;;;;;;;0.40;0.20;;;;;;;17.82;100.00;99034.47;4996344;28;20463;-52
2023/07/25 03:49:00;;;;;;;0.50;0.20;;;;;;;17.89;100.00;99026.78;4996174;28;20575;-52
2023/07/25 03:51:26;;;;;;;0.40;0.20;;;;;;;17.85;100.00;99028.00;4996278;28;20587;-52
2023/07/25 03:53:53;;;;;;;0.40;0.20;;;;;;;17.65;100.00;99024.13;5000413;28;20531;-52
2023/07/25 03:56:19;;;;;;;0.40;0.20;;;;;;;17.60;100.00;99026.34;4994474;28;20822;-52
2023/07/25 03:58:46;;;;;;;0.40;0.20;;;;;;;17.53;100.00;99025.94;4993779;28;20528;-52
2023/07/25 04:01:12;;;;;;;0.40;0.20;;;;;;;17.74;100.00;99027.00;4987342;28;20517;-53
2023/07/25 04:03:39;;;;;;;0.50;0.20;;;;;;;17.66;100.00;99020.47;4982987;28;20834;-52
2023/07/25 04:06:05;;;;;;;0.40;0.20;;;;;;;17.48;100.00;99017.41;4995741;28;20453;-52
2023/07/25 04:08:32;;;;;;;0.50;0.20;;;;;;;17.48;100.00;99010.19;4995702;28;20485;-52
2023/07/25 04:10:58;;;;;;;0.50;0.20;;;;;;;17.23;100.00;99009.50;4995594;28;20544;-52
2023/07/25 04:13:25;;;;;;;0.40;0.20;;;;;;;17.41;100.00;99002.75;4995555;28;20484;-52
2023/07/25 04:15:51;;;;;;;0.50;0.30;;;;;;;17.49;100.00;99002.97;4995848;28;20552;-52
2023/07/25 04:18:18;;;;;;;0.40;0.20;;;;;;;17.45;100.00;99006.88;4995579;28;20953;-52
2023/07/25 04:20:45;;;;;;;0.40;0.20;;;;;;;17.28;100.00;99015.41;4995438;28;20450;-52
2023/07/25 04:23:11;;;;;;;0.40;0.20;;;;;;;17.38;100.00;99013.69;4995491;28;20536;-52
2023/07/25 04:25:37;;;;;;;0.40;0.20;;;;;;;17.61;100.00;99025.34;4995332;28;20504;-52
2023/07/25 04:28:04;;;;;;;0.40;0.20;;;;;;;17.67;100.00;99022.19;4995363;28;20572;-52
2023/07/25 04:30:30;;;;;;;0.40;0.20;;;;;;;17.76;100.00;99014.28;4995328;28;20812;-52
2023/07/25 04:32:57;;;;;;;0.40;0.20;;;;;;;17.73;100.00;99019.06;4982147;28;20505;-52
2023/07/25 04:35:23;;;;;;;0.40;0.20;;;;;;;17.86;100.00;99024.34;4995513;28;20453;-52
2023/07/25 04:37:50;;;;;;;0.40;0.20;;;;;;;17.79;100.00;99015.88;4994307;28;20477;-52
2023/07/25 04:40:16;;;;;;;0.40;0.20;;;;;;;17.65;100.00;99030.38;4995235;28;20481;-52
2023/07/25 04:42:43;;;;;;;0.40;0.20;;;;;;;17.78;100.00;99024.94;4994925;28;20513;-52
2023/07/25 04:45:10;;;;;;;0.40;0.20;;;;;;;17.74;100.00;99024.31;4995452;28;20534;-52
2023/07/25 04:47:36;;;;;;;0.40;0.20;;;;;;;17.70;100.00;99014.78;4995119;28;20572;-52
2023/07/25 04:50:03;;;;;;;0.50;0.20;;;;;;;17.65;100.00;99018.75;4995044;28;20489;-52
2023/07/25 04:52:29;;;;;;;0.40;0.20;;;;;;;17.62;100.00;99019.00;4994924;28;20560;-52
2023/07/25 04:54:58;;;;;;;0.40;0.20;;;;;;;17.71;100.00;99024.56;5007854;28;20448;-52
2023/07/25 04:57:25;;;;;;;0.50;0.20;;;;;;;17.86;100.00;99033.25;4982058;28;20895;-52
2023/07/25 04:59:52;;;;;;;0.40;0.20;;;;;;;17.93;100.00;99026.41;4994817;28;20548;-53
2023/07/25 05:02:20;;;;;;;0.40;0.20;;;;;;;18.01;100.00;99029.34;4979986;28;20564;-53
2023/07/25 05:04:46;;;;;;;0.40;0.20;;;;;;;18.10;100.00;99027.78;4988854;28;20489;-52
2023/07/25 05:07:14;;;;;;;0.40;0.20;;;;;;;18.23;100.00;99039.25;4994719;28;20536;-52
2023/07/25 05:09:40;;;;;;;0.40;0.20;;;;;;;18.19;100.00;99042.31;4994972;28;20540;-53
2023/07/25 05:12:11;;;;;;;0.40;0.20;;;;;;;18.21;100.00;99041.19;4994775;28;20469;-52
2023/07/25 05:14:38;;;;;;;0.40;0.20;;;;;;;18.23;100.00;99047.34;4994900;28;20453;-52
2023/07/25 05:17:04;;;;;;;0.40;0.20;;;;;;;18.42;100.00;99052.09;4994770;28;20541;-52
2023/07/25 05:19:31;;;;;;;0.50;0.20;;;;;;;18.54;100.00;99061.84;4994597;28;20995;-52
2023/07/25 05:21:58;;;;;;;0.40;0.20;;;;;;;18.45;100.00;99059.91;4994483;28;20512;-53
2023/07/25 05:24:25;;;;;;;0.40;0.20;;;;;;;18.37;100.00;99056.13;4994398;28;21042;-52
2023/07/25 05:26:52;;;;;;;0.40;0.20;;;;;;;18.36;100.00;99055.25;4994697;28;20461;-52
2023/07/25 05:29:18;;;;;;;0.40;0.20;;;;;;;18.39;100.00;99060.41;4994562;28;20520;-53
2023/07/25 05:31:44;;;;;;;0.40;0.20;;;;;;;18.35;100.00;99059.78;4985842;28;20498;-53
2023/07/25 05:34:11;;;;;;;0.40;0.20;;;;;;;18.39;100.00;99071.16;4990165;28;20931;-53
2023/07/25 05:36:37;;;;;;;0.40;0.20;;;;;;;18.39;100.00;99071.16;4994368;28;20524;-53
2023/07/25 05:39:04;;;;;;;0.40;0.20;;;;;;;18.06;100.00;99066.63;4994165;28;20450;-52
2023/07/25 05:41:30;;;;;;;0.40;0.20;;;;;;;17.98;100.00;99067.25;4993484;28;20986;-53
2023/07/25 05:43:57;;;;;;;0.40;0.20;;;;;;;18.23;100.00;99063.47;4993838;28;20453;-52
2023/07/25 05:46:24;;;;;;;0.40;0.20;;;;;;;18.01;100.00;99064.31;4993884;28;21013;-52
2023/07/25 05:48:50;;;;;;;0.40;0.20;;;;;;;17.88;100.00;99057.31;4993682;28;20520;-53
2023/07/25 05:51:16;;;;;;;0.40;0.20;;;;;;;17.93;100.00;99060.50;4993694;28;20515;-53
2023/07/25 05:53:43;;;;;;;0.40;0.20;;;;;;;17.87;100.00;99064.53;4994067;28;20453;-52
2023/07/25 05:56:09;;;;;;;0.40;0.20;;;;;;;18.05;100.00;99059.53;4994065;28;20500;-52
2023/07/25 05:58:36;;;;;;;0.40;0.20;;;;;;;17.52;100.00;99058.31;4993808;28;20508;-52
2023/07/25 06:01:02;;;;;;;0.40;0.20;;;;;;;17.42;100.00;99056.34;4985039;28;20502;-52
2023/07/25 06:03:29;;;;;;;0.40;0.20;;;;;;;17.58;100.00;99047.97;4980414;28;20540;-53
2023/07/25 06:05:55;;;;;;;0.40;0.20;;;;;;;17.71;100.00;99047.91;4993620;28;20572;-53
2023/07/25 06:08:22;;;;;;;0.40;0.20;;;;;;;17.66;100.00;99044.66;4993905;28;20920;-52
2023/07/25 06:10:48;;;;;;;0.40;0.20;;;;;;;17.68;100.00;99046.31;4993727;28;20545;-53
2023/07/25 06:13:15;;;;;;;0.40;0.20;;;;;;;17.15;100.00;99026.22;4993453;28;20508;-52
2023/07/25 06:15:41;;;;;;;0.50;0.20;;;;;;;17.17;100.00;99021.59;4993443;28;20473;-53
2023/07/25 06:18:08;;;;;;;0.40;0.20;;;;;;;17.20;100.00;99013.28;4993338;28;20484;-53
2023/07/25 06:20:34;;;;;;;0.40;0.20;;;;;;;17.27;100.00;99011.84;4993784;28;20544;-52
2023/07/25 06:23:01;;;;;;;0.40;0.20;;;;;;;17.27;100.00;99006.50;4993521;28;20552;-52
2023/07/25 06:25:28;;;;;;;0.40;0.20;;;;;;;17.24;100.00;99013.91;4993551;28;20457;-53
2023/07/25 06:27:55;;;;;;;0.50;0.20;;;;;;;17.33;100.00;99019.44;4993346;28;20496;-52
2023/07/25 06:30:21;;;;;;;0.50;0.20;;;;;;;17.62;100.00;99017.19;4993278;28;20449;-52
2023/07/25 06:32:48;;;;;;;0.40;0.20;;;;;;;17.64;100.00;99007.16;4980069;28;20556;-52
2023/07/25 06:35:19;;;;;;;0.40;0.20;;;;;;;17.31;100.00;99001.72;4993600;28;20504;-53
2023/07/25 06:37:45;;;;;;;0.40;0.20;;;;;;;17.38;100.00;98997.56;4993240;28;20520;-52
2023/07/25 06:40:12;;;;;;;0.40;0.20;;;;;;;17.38;100.00;99000.25;4993282;28;20457;-52
2023/07/25 06:42:38;;;;;;;0.40;0.20;;;;;;;17.20;100.00;99002.53;4992789;28;20477;-53
2023/07/25 06:45:05;;;;;;;0.40;0.20;;;;;;;17.25;100.00;99015.59;4993063;28;20449;-52
2023/07/25 06:47:32;;;;;;;0.40;0.20;;;;;;;17.23;100.00;99009.50;4993227;28;20461;-52
2023/07/25 06:49:59;;;;;;;0.40;0.20;;;;;;;17.33;100.00;99008.69;4993155;28;20520;-52
2023/07/25 06:52:26;;;;;;;0.40;0.20;;;;;;;17.21;100.00;99019.50;4992875;28;20508;-53
2023/07/25 06:54:52;;;;;;;0.40;0.20;;;;;;;17.06;100.00;99008.09;5005437;28;20456;-53
2023/07/25 06:57:19;;;;;;;0.40;0.20;;;;;;;17.13;100.00;98999.47;4980287;28;20495;-52
2023/07/25 06:59:45;;;;;;;0.40;0.20;;;;;;;17.10;100.00;99005.06;4992706;28;20449;-52
2023/07/25 07:02:12;;;;;;;0.40;0.20;;;;;;;17.05;100.00;98985.78;4978554;28;20510;-53
2023/07/25 07:04:38;;;;;;;0.43;0.20;;;;;;;17.11;100.00;98995.19;4986502;28;20457;-50
2023/07/25 07:07:06;;;;;;;0.50;0.20;;;;;;;17.00;100.00;98979.06;4992812;28;20541;-52
2023/07/25 07:09:33;;;;;;;0.70;0.70;;;;;;;17.03;100.00;98992.25;4992614;28;20581;-53
2023/07/25 07:12:00;;;;;;;0.40;0.20;;;;;;;16.98;100.00;99002.44;4993028;28;20874;-52
2023/07/25 07:14:26;;;;;;;0.40;0.20;;;;;;;16.90;100.00;98991.44;4992794;28;20456;-53
2023/07/25 07:16:53;;;;;;;0.40;0.20;;;;;;;16.82;100.00;98979.44;4993457;28;20489;-52
2023/07/25 07:19:19;;;;;;;0.50;0.20;;;;;;;16.69;100.00;98975.97;4993087;28;20454;-52
2023/07/25 07:21:46;;;;;;;0.50;0.30;;;;;;;16.70;100.00;98990.25;4992837;28;20589;-52
2023/07/25 07:24:13;;;;;;;0.40;0.20;;;;;;;16.76;100.00;99001.41;4992897;28;20473;-52
2023/07/25 07:26:39;;;;;;;0.40;0.20;;;;;;;16.33;100.00;99010.88;4992941;28;20460;-52
2023/07/25 07:29:06;;;;;;;0.50;0.20;;;;;;;15.80;100.00;99010.19;4992558;28;20488;-52
2023/07/25 07:31:32;;;;;;;0.40;0.20;;;;;;;15.74;100.00;99013.28;4985358;28;20517;-52
2023/07/25 07:34:19;;;;;;;0.50;0.20;;;;;;;15.64;100.00;98997.88;4987529;28;20472;-52
2023/07/25 07:36:46;;;;;;;0.40;0.20;;;;;;;15.70;100.00;98993.91;4975546;28;20450;-52
2023/07/25 07:39:13;;;;;;;0.40;0.20;;;;;;;15.88;100.00;99005.13;4993555;28;20507;-52
2023/07/25 07:41:39;;;;;;;0.40;0.20;;;;;;;15.95;100.00;99027.88;4992527;28;20542;-52
2023/07/25 07:44:06;;;;;;;0.40;0.20;;;;;;;16.15;100.00;99042.53;4992591;28;20532;-52
2023/07/25 07:46:34;;;;;;;0.40;0.20;;;;;;;16.18;100.00;99056.59;4992415;28;20481;-52
2023/07/25 07:49:01;;;;;;;0.40;0.20;;;;;;;16.22;100.00;99067.94;4992349;28;21061;-52
2023/07/25 07:51:28;;;;;;;0.40;0.20;;;;;;;16.07;100.00;99047.59;4992388;28;20473;-52
2023/07/25 07:53:54;;;;;;;0.40;0.20;;;;;;;16.19;100.00;99044.91;4996694;28;20882;-53
2023/07/25 07:56:21;;;;;;;0.40;0.20;;;;;;;16.27;100.00;99031.78;4989900;28;20597;-52
2023/07/25 07:58:47;;;;;;;0.40;0.20;;;;;;;16.06;100.00;99021.75;4990826;28;20527;-52
2023/07/25 08:01:15;;;;;;;0.40;0.20;;;;;;;16.26;100.00;99015.81;4983633;28;21067;-52
2023/07/25 08:03:43;;;;;;;0.40;0.20;;;;;;;16.07;100.00;99013.59;4979467;28;20523;-52
2023/07/25 08:06:10;;;;;;;0.40;0.20;;;;;;;16.04;100.00;99023.69;5009699;28;20833;-52
2023/07/25 08:08:37;;;;;;;0.50;0.50;;;;;;;16.03;100.00;99020.13;4987967;28;20570;-52
2023/07/25 08:11:04;;;;;;;0.40;0.20;;;;;;;16.16;100.00;99025.47;4993624;28;20477;-52
2023/07/25 08:13:30;;;;;;;0.40;0.20;;;;;;;16.25;100.00;99031.03;4995674;28;20520;-52
2023/07/25 08:15:57;;;;;;;0.40;0.20;;;;;;;16.33;100.00;99040.38;4995828;28;21016;-50
2023/07/25 08:18:24;;;;;;;0.40;0.20;;;;;;;16.46;100.00;99035.81;4995702;28;20503;-50
2023/07/25 08:20:58;;;;;;;0.40;0.20;;;;;;;16.49;100.00;99036.44;4995678;28;20488;-50
2023/07/25 08:23:25;;;;;;;0.40;0.20;;;;;;;16.40;100.00;99036.25;4976402;28;20454;-50
2023/07/25 08:25:54;;;;;;;0.40;0.20;;;;;;;16.74;100.00;99040.06;4981843;28;20985;-50
2023/07/25 08:28:21;;;;;;;0.40;0.20;;;;;;;16.63;100.00;99042.63;4995841;28;20563;-50
2023/07/25 08:30:48;;;;;;;0.40;0.20;;;;;;;16.85;100.00;99032.03;4994082;28;20465;-50
2023/07/25 08:33:19;;;;;;;0.40;0.20;;;;;;;16.81;100.00;99028.72;4993178;28;20511;-50
2023/07/25 08:35:47;;;;;;;0.40;0.20;;;;;;;16.62;100.00;99014.09;5005172;28;20530;-50
2023/07/25 08:38:13;;;;;;;0.40;0.30;;;;;;;16.91;100.00;99022.69;4988823;28;20445;-50
2023/07/25 08:40:41;;;;;;;0.40;0.20;;;;;;;17.18;100.00;99024.16;4994900;28;20548;-50
2023/07/25 08:43:10;;;;;;;0.40;0.20;;;;;;;17.24;100.00;99028.19;4995340;28;20884;-52
2023/07/25 08:45:36;;;;;;;0.40;0.20;;;;;;;17.44;100.00;99032.03;4997761;28;20538;-53
2023/07/25 08:48:04;;;;;;;0.40;0.20;;;;;;;17.51;100.00;99035.09;4994877;28;20453;-52
2023/07/25 08:50:32;;;;;;;25.27;4.43;;;;;;;17.73;100.00;99029.81;4995319;28;20453;-53
2023/07/25 08:53:02;;;;;;;0.40;0.20;;;;;;;17.61;100.00;99028.91;4995395;28;20509;-53
2023/07/25 08:55:29;;;;;;;0.40;0.20;;;;;;;18.26;100.00;99024.72;5005299;28;20458;-53
2023/07/25 08:57:56;;;;;;;0.40;0.20;;;;;;;18.59;100.00;99037.25;5013163;28;20951;-53
2023/07/25 09:00:23;;;;;;;0.40;0.20;;;;;;;18.64;100.00;99052.09;4988463;28;20880;-52
2023/07/25 09:02:51;;;;;;;0.40;0.20;;;;;;;18.59;100.00;99058.78;4979730;28;20489;-52
2023/07/25 09:05:20;;;;;;;0.40;0.20;;;;;;;18.38;100.00;99058.69;5002492;28;20461;-53
2023/07/25 09:07:47;;;;;;;0.40;0.20;;;;;;;18.59;100.00;99061.47;4998994;28;20481;-53
2023/07/25 09:10:14;;;;;;;0.40;0.20;;;;;;;18.47;100.00;99057.09;4989527;28;20577;-53
2023/07/25 09:12:40;;;;;;;0.40;0.20;;;;;;;18.41;100.00;99052.22;4988964;28;20560;-52
2023/07/25 09:15:07;;;;;;;0.40;0.20;;;;;;;18.22;100.00;99047.44;4982346;28;20537;-52
2023/07/25 09:17:34;;;;;;;0.50;0.40;;;;;;;18.12;100.00;99050.03;4994688;28;20485;-53
2023/07/25 09:20:00;;;;;;;0.40;0.20;;;;;;;18.30;100.00;99056.59;4994947;28;20460;-53
2023/07/25 09:22:31;;;;;;;0.50;0.40;;;;;;;18.16;100.00;99054.16;4994084;28;20473;-52
2023/07/25 09:24:58;;;;;;;0.40;0.20;;;;;;;18.76;100.00;99054.75;4988657;28;20558;-53
2023/07/25 09:27:26;;;;;;;0.40;0.20;;;;;;;18.79;100.00;99065.28;4988367;28;20461;-52
2023/07/25 09:29:53;;;;;;;0.50;0.40;;;;;;;18.60;100.00;99077.50;4994258;28;20831;-52
2023/07/25 09:32:25;;;;;;;0.40;0.20;;;;;;;18.82;100.00;99078.47;4981373;28;21055;-53
2023/07/25 09:34:57;;;;;;;0.40;0.20;;;;;;;18.90;99.23;99082.25;4994431;28;20532;-53
2023/07/25 09:37:24;;;;;;;0.40;0.20;;;;;;;19.08;100.00;99079.03;4994512;28;20512;-53
2023/07/25 09:39:51;;;;;;;0.40;0.20;;;;;;;18.85;100.00;99083.63;4994241;28;20512;-53
2023/07/25 09:42:22;;;;;;;0.40;0.20;;;;;;;18.58;97.93;99084.84;4993939;28;20469;-53
2023/07/25 09:44:53;;;;;;;0.40;0.20;;;;;;;18.77;100.00;99091.44;4994525;28;20465;-53
2023/07/25 09:47:26;;;;;;;0.40;0.20;;;;;;;18.87;100.00;99089.72;4993999;28;20496;-53
2023/07/25 09:49:54;;;;;;;0.40;0.20;;;;;;;18.87;100.00;99087.03;4993910;28;20488;-53
2023/07/25 09:52:22;;;;;;;0.40;0.20;;;;;;;18.71;100.00;99091.97;4993835;28;20851;-53
2023/07/25 09:54:50;;;;;;;0.40;0.20;;;;;;;18.69;100.00;99093.94;5005943;28;20456;-53
2023/07/25 09:57:16;;;;;;;0.40;0.20;;;;;;;18.80;99.46;99102.00;4981368;28;20997;-52
2023/07/25 09:59:44;;;;;;;0.40;0.20;;;;;;;19.09;99.33;99094.22;4993953;28;20485;-53
2023/07/25 10:02:10;;;;;;;0.40;0.20;;;;;;;19.29;98.80;99089.84;4979504;28;20912;-53
2023/07/25 10:04:37;;;;;;;0.40;0.20;;;;;;;19.37;99.92;99095.47;4986672;28;20801;-53
2023/07/25 10:07:06;;;;;;;0.40;0.20;;;;;;;19.15;100.00;99101.75;4993580;28;20457;-53
2023/07/25 10:09:33;;;;;;;0.40;0.20;;;;;;;19.20;98.95;99100.41;4993440;28;20935;-52
2023/07/25 10:12:03;;;;;;;0.40;0.20;;;;;;;19.37;97.33;99109.78;4993727;28;20474;-52
2023/07/25 10:14:30;;;;;;;0.57;0.57;;;;;;;19.68;96.95;99102.69;4993689;28;20452;-52
2023/07/25 10:16:58;;;;;;;0.40;0.20;;;;;;;19.89;97.27;99105.41;4974414;28;20486;-53
2023/07/25 10:19:25;;;;;;;0.50;0.30;;;;;;;19.73;94.85;99103.13;4973032;28;20461;-52
2023/07/25 10:21:53;;;;;;;0.40;0.20;;;;;;;20.02;96.04;99108.75;4981094;28;20476;-53
2023/07/25 10:24:20;;;;;;;0.40;0.20;;;;;;;19.83;94.89;99104.06;4993365;28;20489;-53
2023/07/25 10:26:58;;;;;;;0.40;0.20;;;;;;;19.56;94.27;99108.25;4993671;28;20453;-53
2023/07/25 10:29:48;;;;;;;0.40;0.20;;;;;;;19.34;94.36;99111.88;4993269;28;21010;-53
2023/07/25 10:32:16;;;;;;;0.40;0.20;;;;;;;19.05;95.36;99122.34;4981107;28;20541;-53
2023/07/25 10:34:51;;;;;;;0.40;0.20;;;;;;;19.21;95.75;99120.13;4993394;28;20481;-53
2023/07/25 10:37:44;;;;;;;0.40;0.20;;;;;;;19.37;94.95;99119.72;4993464;28;20449;-53
2023/07/25 10:40:16;;;;;;;0.40;0.20;;;;;;;19.10;94.76;99125.53;4988767;28;21013;-53
2023/07/25 10:42:52;;;;;;;0.40;0.20;;;;;;;19.33;93.89;99121.81;4992865;28;20560;-53
2023/07/25 10:45:27;;;;;;;0.40;0.20;;;;;;;19.26;94.37;99126.00;4993925;28;20504;-53
2023/07/25 10:47:59;;;;;;;0.40;0.20;;;;;;;19.19;93.16;99135.56;4973919;28;20507;-54
2023/07/25 10:50:28;;;;;;;0.40;0.20;;;;;;;19.66;93.80;99133.47;4988242;28;20493;-53
2023/07/25 10:52:55;;;;;;;0.40;0.20;;;;;;;19.45;92.84;99133.38;4993181;28;20565;-53
2023/07/25 10:55:21;;;;;;;0.40;0.20;;;;;;;19.68;92.60;99136.88;5003236;28;20529;-53
2023/07/25 10:58:08;;;;;;;0.40;0.20;;;;;;;19.49;92.01;99142.94;4983145;28;20478;-53
2023/07/25 11:00:36;;;;;;;0.40;0.20;;;;;;;19.74;91.66;99142.63;4986848;28;20528;-53
2023/07/25 11:03:27;;;;;;;0.40;0.20;;;;;;;19.64;89.13;99143.53;4977648;28;20458;-53
2023/07/25 11:06:06;;;;;;;0.40;0.20;;;;;;;19.79;90.05;99145.78;4973412;28;20935;-53
2023/07/25 11:08:37;;;;;;;0.40;0.20;;;;;;;19.52;90.70;99148.06;4991668;28;20457;-53
2023/07/25 11:11:09;;;;;;;0.40;0.20;;;;;;;19.76;89.67;99146.03;4992602;28;21076;-53
2023/07/25 11:13:37;;;;;;;0.40;0.20;;;;;;;19.74;89.42;99148.03;4992796;28;20555;-52
2023/07/25 11:16:06;;;;;;;0.40;0.20;;;;;;;19.67;90.79;99151.34;4992652;28;20515;-53
2023/07/25 11:18:35;;;;;;;0.40;0.20;;;;;;;19.67;92.06;99149.50;4992889;28;20489;-52
2023/07/25 11:21:04;;;;;;;0.40;0.20;;;;;;;19.81;90.87;99156.44;4992792;28;20448;-53
2023/07/25 11:23:31;;;;;;;0.40;0.20;;;;;;;19.97;89.62;99159.53;4993060;28;20488;-53
2023/07/25 11:26:03;;;;;;;0.40;0.20;;;;;;;19.99;88.92;99162.09;4992501;28;20548;-54
2023/07/25 11:28:30;;;;;;;0.40;0.20;;;;;;;20.12;86.04;99163.59;4992708;28;20450;-53